Time;durP1;ratioP1;P1;durP2;ratioP2;P2;SDS_P1;SDS_P2;PMS_P1;PMS_P2;Temp;Humidity;BMP_temperature;BMP_pressure;BME280_temperature;BME280_humidity;BME280_pressure;Samples;Min_cycle;Max_cycle;Signal;HPM_P1;HPM_P2
2023/01/15 00:01:35;;;;;;;1.65;0.57;;;9.30;99.90;;;;;;4984449;28;20042;-63
2023/01/15 00:04:03;;;;;;;2.13;0.90;;;9.40;99.90;;;;;;4993093;28;20434;-63
2023/01/15 00:06:31;;;;;;;0.30;0.30;;;9.50;99.90;;;;;;4990827;28;20030;-63
2023/01/15 00:08:57;;;;;;;1.77;0.82;;;9.40;99.90;;;;;;4998077;28;20041;-63
2023/01/15 00:11:23;;;;;;;1.48;0.40;;;9.40;99.90;;;;;;4986442;28;20038;-64
2023/01/15 00:13:49;;;;;;;0.88;0.35;;;9.50;99.90;;;;;;4984628;28;20038;-63
2023/01/15 00:16:21;;;;;;;0.30;0.30;;;9.50;99.90;;;;;;4990438;28;20045;-63
2023/01/15 00:18:56;;;;;;;0.52;0.40;;;9.40;99.90;;;;;;4992545;28;20034;-64
2023/01/15 00:21:23;;;;;;;0.70;0.45;;;9.40;99.90;;;;;;5006288;28;20030;-63
2023/01/15 00:29:19;;;;;;;0.38;0.30;;;9.50;99.90;;;;;;4994021;28;20136;-63
2023/01/15 00:32:06;;;;;;;0.95;0.43;;;9.60;99.90;;;;;;4996998;28;20053;-63
2023/01/15 00:34:33;;;;;;;0.60;0.30;;;9.60;99.90;;;;;;4990908;28;20084;-63
2023/01/15 00:36:59;;;;;;;0.30;0.22;;;9.60;99.90;;;;;;4983673;28;20038;-63
2023/01/15 00:39:26;;;;;;;1.40;0.40;;;9.60;99.90;;;;;;4988718;28;20041;-63
2023/01/15 00:41:52;;;;;;;0.30;0.20;;;9.70;99.90;;;;;;4989825;28;20465;-63
2023/01/15 00:44:19;;;;;;;1.77;0.30;;;9.70;99.90;;;;;;5008248;28;20120;-63
2023/01/15 00:46:45;;;;;;;1.25;0.30;;;9.60;99.90;;;;;;4985976;28;20058;-63
2023/01/15 00:49:12;;;;;;;0.85;0.55;;;9.60;99.90;;;;;;4983908;28;20030;-63
2023/01/15 00:51:37;;;;;;;2.20;0.30;;;9.60;99.90;;;;;;4990348;28;20037;-63
2023/01/15 00:54:04;;;;;;;0.80;0.57;;;9.60;99.90;;;;;;5007686;28;20034;-64
2023/01/15 00:56:30;;;;;;;0.30;0.30;;;9.60;99.90;;;;;;4993268;28;20096;-63
2023/01/15 00:58:56;;;;;;;1.00;0.30;;;9.70;99.90;;;;;;4988673;28;20030;-64
2023/01/15 01:01:22;;;;;;;0.30;0.30;;;9.80;99.90;;;;;;4983787;28;20454;-63
2023/01/15 01:03:51;;;;;;;0.40;0.28;;;9.90;99.90;;;;;;5000772;28;20565;-63
2023/01/15 01:06:19;;;;;;;0.20;0.20;;;10.00;99.90;;;;;;4997546;28;20445;-64
2023/01/15 01:08:45;;;;;;;0.40;0.40;;;10.00;99.90;;;;;;5007407;28;20145;-63
2023/01/15 01:11:15;;;;;;;0.20;0.20;;;10.10;99.90;;;;;;4987843;28;20040;-63
2023/01/15 01:13:41;;;;;;;0.47;0.22;;;10.00;99.90;;;;;;4996327;28;20073;-64
2023/01/15 01:16:30;;;;;;;1.05;0.30;;;10.10;99.90;;;;;;4984764;28;20030;-64
2023/01/15 01:18:58;;;;;;;0.30;0.30;;;10.10;99.90;;;;;;4987547;28;20470;-63
2023/01/15 01:21:24;;;;;;;0.63;0.40;;;10.10;99.90;;;;;;4989479;28;20485;-63
2023/01/15 01:23:50;;;;;;;0.15;0.15;;;10.20;99.90;;;;;;4986777;28;20033;-64
2023/01/15 01:26:16;;;;;;;1.38;0.30;;;10.20;99.90;;;;;;4990475;28;20034;-64
2023/01/15 01:28:47;;;;;;;0.25;0.25;;;10.20;99.90;;;;;;4985760;28;20165;-63
2023/01/15 01:31:12;;;;;;;2.05;0.22;;;10.20;99.90;;;;;;4995030;28;20033;-63
2023/01/15 01:33:38;;;;;;;0.22;0.22;;;10.20;99.90;;;;;;4991329;28;20030;-63
2023/01/15 01:36:04;;;;;;;0.10;0.10;;;10.30;99.90;;;;;;4995584;28;20161;-63
2023/01/15 01:38:30;;;;;;;1.50;0.30;;;10.30;99.90;;;;;;4988685;28;20058;-63
2023/01/15 01:40:56;;;;;;;0.88;0.30;;;10.40;99.90;;;;;;4983227;28;20108;-64
2023/01/15 01:43:28;;;;;;;0.10;0.10;;;10.40;99.90;;;;;;4986296;28;20026;-63
2023/01/15 01:45:54;;;;;;;0.93;0.28;;;10.40;99.90;;;;;;4988714;28;20034;-63
2023/01/15 01:48:33;;;;;;;0.10;0.10;;;10.30;99.90;;;;;;4987474;28;20073;-63
2023/01/15 01:51:00;;;;;;;0.10;0.10;;;10.40;99.90;;;;;;4984511;28;20462;-63
2023/01/15 01:53:29;;;;;;;0.30;0.20;;;10.20;99.90;;;;;;4987662;28;20038;-63
2023/01/15 01:55:57;;;;;;;0.28;0.28;;;10.10;99.90;;;;;;4988523;28;20038;-64
2023/01/15 01:58:27;;;;;;;0.10;0.10;;;10.00;99.90;;;;;;4994325;28;20034;-64
2023/01/15 02:00:53;;;;;;;0.32;0.20;;;9.90;99.90;;;;;;4990094;28;20039;-63
2023/01/15 02:03:23;;;;;;;0.25;0.22;;;9.90;99.90;;;;;;4982818;28;20042;-64
2023/01/15 02:05:53;;;;;;;0.25;0.10;;;10.00;99.90;;;;;;4982319;28;20066;-64
2023/01/15 02:08:18;;;;;;;0.75;0.20;;;10.00;99.90;;;;;;4986852;28;20035;-63
2023/01/15 02:10:50;;;;;;;0.82;0.22;;;9.90;99.90;;;;;;4991469;28;20034;-64
2023/01/15 02:13:32;;;;;;;0.22;0.20;;;9.90;99.90;;;;;;4987065;28;20080;-63
2023/01/15 02:16:05;;;;;;;0.17;0.15;;;9.90;99.90;;;;;;4998938;28;20501;-63
2023/01/15 02:18:57;;;;;;;0.35;0.20;;;9.80;99.90;;;;;;4988632;28;20030;-63
2023/01/15 02:21:41;;;;;;;0.20;0.20;;;9.80;99.90;;;;;;4986245;28;20037;-63
2023/01/15 02:24:43;;;;;;;0.52;0.10;;;9.90;99.90;;;;;;4991063;28;20109;-64
2023/01/15 02:27:15;;;;;;;0.32;0.30;;;9.90;99.90;;;;;;4958673;28;20067;-67
2023/01/15 02:29:55;;;;;;;0.15;0.10;;;9.90;99.90;;;;;;4993678;28;20032;-67
2023/01/15 02:32:41;;;;;;;0.30;0.10;;;9.90;99.90;;;;;;4994707;28;20040;-67
2023/01/15 02:35:17;;;;;;;0.95;0.30;;;9.90;99.90;;;;;;5007652;28;20041;-67
2023/01/15 02:37:50;;;;;;;0.50;0.35;;;9.90;99.90;;;;;;4992631;28;20114;-67
2023/01/15 02:40:22;;;;;;;0.50;0.30;;;9.80;99.90;;;;;;4990246;28;20042;-67
2023/01/15 02:42:50;;;;;;;0.20;0.20;;;9.70;99.90;;;;;;5005354;28;20413;-67
2023/01/15 02:45:26;;;;;;;0.55;0.30;;;9.80;99.90;;;;;;4996123;28;20136;-67
2023/01/15 02:47:53;;;;;;;;;;;9.70;99.90;;;;;;4986217;28;20073;-67
2023/01/15 02:50:26;;;;;;;0.50;0.20;;;9.70;99.90;;;;;;5010304;28;19914;-67
2023/01/15 02:52:58;;;;;;;0.20;0.20;;;9.80;99.90;;;;;;4986158;28;20541;-67
2023/01/15 02:55:32;;;;;;;;;;;9.80;99.90;;;;;;5006609;28;20034;-68
2023/01/15 02:58:01;;;;;;;0.77;0.17;;;9.80;99.90;;;;;;5013577;28;19914;-67
2023/01/15 03:00:37;;;;;;;0.43;0.22;;;9.70;99.90;;;;;;5010427;28;20510;-68
2023/01/15 03:03:23;;;;;;;0.10;0.10;;;9.70;99.90;;;;;;5012621;28;20034;-67
2023/01/15 03:06:14;;;;;;;0.30;0.30;;;9.70;99.90;;;;;;4990411;28;20632;-67
2023/01/15 03:08:40;;;;;;;0.28;0.28;;;9.90;99.90;;;;;;4997493;28;20030;-67
2023/01/15 03:11:11;;;;;;;0.57;0.35;;;9.80;99.90;;;;;;4993084;28;20030;-67
2023/01/15 03:13:42;;;;;;;0.22;0.20;;;9.70;99.90;;;;;;5013639;28;20026;-67
2023/01/15 03:19:20;;;;;;;0.40;0.30;;;9.70;99.90;;;;;;4990554;28;20065;-67
2023/01/15 03:22:10;;;;;;;0.98;0.30;;;9.70;99.90;;;;;;5009449;28;20052;-67
2023/01/15 03:24:42;;;;;;;1.52;0.30;;;9.80;99.90;;;;;;5009680;28;20041;-67
2023/01/15 03:27:09;;;;;;;0.30;0.20;;;10.00;99.90;;;;;;4994239;28;20053;-68
2023/01/15 03:29:41;;;;;;;0.73;0.30;;;10.20;99.90;;;;;;4993346;28;20084;-67
2023/01/15 03:32:07;;;;;;;0.20;0.20;;;10.30;99.90;;;;;;4984136;28;20045;-67
2023/01/15 03:34:42;;;;;;;0.25;0.25;;;10.50;99.90;;;;;;4989097;28;20037;-67
2023/01/15 03:37:08;;;;;;;0.35;0.20;;;10.60;99.90;;;;;;4999140;28;20045;-68
2023/01/15 03:39:34;;;;;;;0.45;0.30;;;10.70;99.90;;;;;;5000111;28;20497;-68
2023/01/15 03:42:11;;;;;;;0.70;0.38;;;10.70;99.90;;;;;;4992780;28;20607;-68
2023/01/15 03:44:42;;;;;;;2.15;0.22;;;10.70;99.90;;;;;;4993409;28;20120;-67
2023/01/15 03:47:26;;;;;;;0.43;0.20;;;10.60;99.90;;;;;;4997185;28;20046;-67
2023/01/15 03:50:13;;;;;;;0.40;0.40;;;10.70;99.90;;;;;;4995131;28;20030;-68
2023/01/15 03:53:00;;;;;;;1.17;0.20;;;10.70;99.90;;;;;;4991763;28;20409;-67
2023/01/15 03:56:00;;;;;;;1.50;0.28;;;10.50;99.90;;;;;;4994570;28;20038;-67
2023/01/15 03:58:42;;;;;;;3.20;0.43;;;10.30;99.90;;;;;;4986184;28;20084;-67
2023/01/15 04:01:14;;;;;;;1.55;0.20;;;10.10;99.90;;;;;;5009205;28;20040;-67
2023/01/15 04:03:42;;;;;;;1.58;0.30;;;10.00;99.90;;;;;;5010297;28;20032;-66
2023/01/15 04:06:09;;;;;;;0.30;0.20;;;9.90;99.90;;;;;;4993673;28;20034;-67
2023/01/15 04:08:39;;;;;;;0.38;0.10;;;9.90;99.90;;;;;;4996050;28;20027;-68
2023/01/15 04:11:05;;;;;;;0.30;0.20;;;9.80;99.90;;;;;;4993390;28;20042;-67
2023/01/15 04:13:39;;;;;;;0.70;0.25;;;9.70;99.90;;;;;;5004928;28;20109;-67
2023/01/15 04:16:07;;;;;;;1.95;0.30;;;9.50;99.90;;;;;;4993087;28;20038;-67
2023/01/15 04:18:33;;;;;;;0.75;0.22;;;9.50;99.90;;;;;;4989557;28;20081;-66
2023/01/15 04:20:58;;;;;;;0.00;0.00;;;9.40;99.90;;;;;;4994685;28;20173;-67
2023/01/15 04:23:24;;;;;;;3.00;0.52;;;9.30;99.90;;;;;;4999739;28;20407;-66
2023/01/15 04:25:50;;;;;;;0.13;0.13;;;9.20;99.90;;;;;;4997113;28;20026;-66
2023/01/15 04:28:16;;;;;;;1.77;0.30;;;9.20;99.90;;;;;;4993659;28;20506;-67
2023/01/15 04:30:42;;;;;;;0.50;0.30;;;9.20;99.90;;;;;;4993388;28;20721;-66
2023/01/15 04:33:08;;;;;;;1.48;0.52;;;9.20;99.90;;;;;;4991364;28;20120;-67
2023/01/15 04:35:34;;;;;;;1.20;0.47;;;9.10;99.90;;;;;;4993701;28;20036;-66
2023/01/15 04:38:00;;;;;;;0.38;0.30;;;9.10;99.90;;;;;;4988438;28;20737;-66
2023/01/15 04:45:58;;;;;;;0.55;0.28;;;9.10;99.90;;;;;;4994158;28;20033;-66
2023/01/15 04:48:24;;;;;;;0.63;0.20;;;9.00;99.90;;;;;;4988968;28;20042;-67
2023/01/15 04:50:50;;;;;;;0.90;0.38;;;8.90;99.90;;;;;;4994944;28;20045;-68
2023/01/15 04:53:16;;;;;;;0.47;0.17;;;8.80;99.90;;;;;;4997730;28;20497;-68
2023/01/15 04:55:42;;;;;;;1.48;0.30;;;8.80;99.90;;;;;;4997090;28;20474;-69
2023/01/15 04:58:08;;;;;;;1.35;0.35;;;8.80;99.90;;;;;;4986465;28;20129;-68
2023/01/15 05:00:34;;;;;;;3.45;0.43;;;8.70;99.90;;;;;;4991432;28;20036;-68
2023/01/15 05:02:59;;;;;;;1.40;0.38;;;8.70;99.90;;;;;;4990082;28;20943;-68
2023/01/15 05:05:25;;;;;;;2.35;0.32;;;8.60;99.90;;;;;;4993430;28;20029;-68
2023/01/15 05:07:51;;;;;;;2.38;0.30;;;8.60;99.90;;;;;;4995420;28;20041;-68
2023/01/15 05:10:17;;;;;;;2.38;0.10;;;8.60;99.90;;;;;;4989362;28;20146;-69
2023/01/15 05:12:43;;;;;;;0.30;0.20;;;8.60;99.90;;;;;;4985208;28;20809;-68
2023/01/15 05:15:09;;;;;;;1.95;0.28;;;8.60;99.90;;;;;;4988346;28;20044;-67
2023/01/15 05:17:35;;;;;;;0.70;0.43;;;8.60;99.90;;;;;;4989502;28;20149;-66
2023/01/15 05:20:00;;;;;;;1.38;0.20;;;8.60;99.90;;;;;;4991799;28;20038;-67
2023/01/15 05:22:26;;;;;;;0.47;0.20;;;8.50;99.90;;;;;;4993022;28;20049;-67
2023/01/15 05:24:52;;;;;;;3.42;0.40;;;8.60;99.90;;;;;;4992050;28;20038;-67
2023/01/15 05:27:18;;;;;;;1.75;0.57;;;8.50;99.80;;;;;;4989667;28;20024;-67
2023/01/15 05:29:43;;;;;;;0.80;0.15;;;8.30;99.90;;;;;;4993278;28;20156;-67
2023/01/15 05:32:09;;;;;;;0.70;0.30;;;8.30;99.90;;;;;;4993254;28;20043;-67
2023/01/15 05:34:35;;;;;;;2.17;0.45;;;8.30;99.90;;;;;;4995984;28;20064;-67
2023/01/15 05:37:01;;;;;;;0.90;0.20;;;8.30;99.90;;;;;;4986785;28;20169;-68
2023/01/15 05:39:27;;;;;;;1.13;0.40;;;8.30;99.90;;;;;;4994428;28;20513;-66
2023/01/15 05:41:53;;;;;;;1.55;0.28;;;8.30;99.90;;;;;;4987919;28;20857;-67
2023/01/15 05:44:22;;;;;;;0.65;0.10;;;8.30;99.90;;;;;;4989391;28;20034;-70
2023/01/15 05:46:49;;;;;;;0.25;0.10;;;8.30;99.90;;;;;;4991920;28;20034;-67
2023/01/15 05:49:19;;;;;;;1.80;0.57;;;8.30;99.90;;;;;;4991865;28;20069;-67
2023/01/15 05:51:46;;;;;;;0.57;0.35;;;8.40;99.90;;;;;;4985736;28;20040;-69
2023/01/15 05:54:15;;;;;;;1.25;0.40;;;8.40;99.90;;;;;;4990031;28;20045;-67
2023/01/15 05:56:41;;;;;;;2.53;0.60;;;8.30;99.90;;;;;;4991084;28;20042;-68
2023/01/15 05:59:09;;;;;;;1.77;0.10;;;8.40;99.90;;;;;;4987155;28;20035;-64
2023/01/15 06:01:35;;;;;;;1.55;0.20;;;8.30;99.80;;;;;;4991059;28;20041;-65
2023/01/15 06:04:03;;;;;;;1.45;0.38;;;8.30;99.90;;;;;;4987820;28;20033;-66
2023/01/15 06:06:29;;;;;;;2.33;0.30;;;8.30;99.80;;;;;;4992006;28;20141;-64
2023/01/15 06:08:55;;;;;;;1.63;0.40;;;8.30;99.80;;;;;;4990299;28;20038;-65
2023/01/15 06:11:21;;;;;;;1.23;0.10;;;8.20;99.50;;;;;;4985620;28;20049;-64
2023/01/15 06:13:47;;;;;;;2.80;0.30;;;8.20;99.60;;;;;;4991703;28;20030;-67
2023/01/15 06:16:13;;;;;;;1.80;0.50;;;8.10;99.50;;;;;;4992810;28;20096;-65
2023/01/15 06:18:39;;;;;;;0.65;0.20;;;8.00;99.80;;;;;;4997849;28;20589;-67
2023/01/15 06:21:07;;;;;;;1.15;0.17;;;8.00;99.90;;;;;;4995963;28;20132;-66
2023/01/15 06:23:35;;;;;;;1.30;0.22;;;7.90;99.90;;;;;;4976980;28;20121;-68
2023/01/15 06:26:07;;;;;;;1.55;0.28;;;7.90;99.90;;;;;;4994065;28;20058;-65
2023/01/15 06:28:34;;;;;;;0.68;0.10;;;7.90;99.90;;;;;;4990878;28;20224;-66
2023/01/15 06:31:04;;;;;;;0.40;0.20;;;7.80;99.90;;;;;;4996678;28;20481;-65
2023/01/15 06:33:30;;;;;;;0.38;0.13;;;7.80;99.90;;;;;;4999702;28;20132;-67
2023/01/15 06:35:56;;;;;;;1.77;0.60;;;7.70;99.90;;;;;;5004427;28;20121;-67
2023/01/15 06:38:21;;;;;;;3.47;0.73;;;7.60;99.90;;;;;;4995184;28;20030;-66
2023/01/15 06:40:48;;;;;;;12.73;4.72;;;7.60;99.90;;;;;;4996915;28;20034;-66
2023/01/15 06:48:50;;;;;;;0.43;0.30;;;7.50;99.90;;;;;;4978755;28;20038;-67
2023/01/15 06:51:19;;;;;;;1.13;0.10;;;7.50;99.90;;;;;;4991517;28;20044;-67
2023/01/15 06:53:46;;;;;;;0.20;0.13;;;7.50;99.90;;;;;;4994679;28;20045;-67
2023/01/15 06:56:15;;;;;;;2.17;0.28;;;7.50;99.90;;;;;;5000026;28;20141;-67
2023/01/15 06:58:42;;;;;;;1.58;0.30;;;7.50;99.90;;;;;;4996416;28;20145;-67
2023/01/15 07:01:13;;;;;;;3.00;0.22;;;7.40;99.90;;;;;;4995888;28;20042;-69
2023/01/15 07:03:39;;;;;;;1.25;0.20;;;7.40;99.90;;;;;;4992495;28;20034;-67
2023/01/15 07:06:10;;;;;;;0.20;0.20;;;7.40;99.90;;;;;;4994873;28;20041;-67
2023/01/15 07:08:36;;;;;;;1.25;0.15;;;7.40;99.90;;;;;;4998260;28;20041;-67
2023/01/15 07:11:04;;;;;;;1.63;0.30;;;7.50;99.90;;;;;;4994776;28;20042;-66
2023/01/15 07:13:30;;;;;;;1.25;0.10;;;7.50;99.90;;;;;;4995376;28;20129;-67
2023/01/15 07:15:58;;;;;;;0.50;0.20;;;7.50;99.90;;;;;;4993896;28;20444;-67
2023/01/15 07:18:24;;;;;;;0.95;0.20;;;7.60;99.90;;;;;;4993146;28;20038;-67
2023/01/15 07:20:54;;;;;;;0.38;0.30;;;7.60;99.90;;;;;;4999561;28;20576;-67
2023/01/15 07:23:21;;;;;;;1.17;0.47;;;7.60;99.90;;;;;;4995165;28;20218;-65
2023/01/15 07:25:47;;;;;;;1.80;0.40;;;7.60;99.90;;;;;;5002371;28;20064;-66
2023/01/15 07:28:13;;;;;;;4.00;1.10;;;7.50;99.90;;;;;;4995524;28;20034;-66
2023/01/15 07:30:39;;;;;;;1.52;0.22;;;7.50;99.90;;;;;;5001081;28;20022;-68
2023/01/15 07:33:04;;;;;;;0.45;0.40;;;7.30;99.90;;;;;;4989261;28;20108;-66
2023/01/15 07:35:30;;;;;;;0.32;0.20;;;7.10;99.90;;;;;;4993004;28;20629;-68
2023/01/15 07:37:56;;;;;;;0.93;0.65;;;7.00;99.90;;;;;;4991773;28;20378;-66
2023/01/15 07:40:21;;;;;;;0.57;0.35;;;7.00;99.90;;;;;;4991951;28;20494;-66
2023/01/15 07:49:44;;;;;;;0.47;0.35;;;6.70;99.90;;;;;;4997096;28;20025;-66
2023/01/15 07:51:14;;;;;;;0.93;0.43;;;6.70;99.90;;;;;;4991595;28;20040;-66
2023/01/15 07:53:39;;;;;;;0.10;0.10;;;6.60;99.90;;;;;;4992959;28;20037;-65
2023/01/15 07:56:06;;;;;;;0.10;0.10;;;6.60;99.90;;;;;;5000599;28;20041;-66
2023/01/15 07:58:31;;;;;;;2.13;0.80;;;6.60;99.90;;;;;;5001940;28;20068;-66
2023/01/15 08:00:57;;;;;;;2.08;0.45;;;6.70;99.90;;;;;;5001225;28;20117;-65
2023/01/15 08:03:23;;;;;;;3.67;1.30;;;6.80;99.90;;;;;;4999321;28;20486;-65
2023/01/15 08:05:49;;;;;;;2.00;0.70;;;6.90;99.90;;;;;;4997631;28;20081;-65
2023/01/15 08:08:18;;;;;;;0.20;0.15;;;6.90;99.90;;;;;;5005565;28;20827;-65
2023/01/15 08:16:12;;;;;;;0.70;0.20;;;7.00;99.90;;;;;;4996051;28;20042;-67
2023/01/15 08:18:38;;;;;;;2.03;0.35;;;7.00;99.90;;;;;;4994693;28;20091;-67
2023/01/15 08:21:05;;;;;;;0.35;0.13;;;7.10;99.90;;;;;;4997913;28;20078;-67
2023/01/15 08:23:30;;;;;;;2.33;0.40;;;7.10;99.90;;;;;;4994835;28;20569;-67
2023/01/15 08:26:00;;;;;;;1.50;0.60;;;7.10;99.90;;;;;;4996953;28;20038;-67
2023/01/15 08:28:26;;;;;;;1.48;0.22;;;7.10;99.90;;;;;;5003231;28;20029;-68
2023/01/15 08:30:52;;;;;;;0.65;0.30;;;7.10;99.90;;;;;;4992165;28;20037;-67
2023/01/15 08:33:18;;;;;;;0.60;0.20;;;7.10;99.90;;;;;;5000293;28;20040;-67
2023/01/15 08:35:44;;;;;;;1.05;0.20;;;7.10;99.90;;;;;;4993726;28;20026;-67
2023/01/15 08:38:09;;;;;;;0.82;0.43;;;7.10;99.90;;;;;;5004407;28;20674;-67
2023/01/15 08:40:57;;;;;;;2.08;0.50;;;7.10;99.90;;;;;;4991275;28;20030;-64
2023/01/15 08:43:22;;;;;;;0.17;0.17;;;7.10;99.90;;;;;;4997858;28;20037;-64
2023/01/15 08:45:47;;;;;;;0.10;0.10;;;7.10;99.90;;;;;;4993176;28;20041;-64
2023/01/15 08:48:13;;;;;;;1.30;0.30;;;7.10;99.90;;;;;;4992238;28;20041;-69
2023/01/15 08:50:39;;;;;;;0.50;0.30;;;7.10;99.90;;;;;;4993067;28;20030;-64
2023/01/15 08:53:05;;;;;;;2.10;0.22;;;7.20;99.90;;;;;;4994804;28;20736;-64
2023/01/15 08:55:31;;;;;;;1.58;0.35;;;7.10;99.90;;;;;;4987683;28;20084;-63
2023/01/15 08:57:57;;;;;;;1.25;0.28;;;7.10;99.90;;;;;;4990704;28;20120;-63
2023/01/15 09:00:23;;;;;;;2.28;0.20;;;7.20;99.90;;;;;;5005151;28;20792;-63
2023/01/15 09:02:49;;;;;;;3.67;0.90;;;7.30;99.90;;;;;;5012020;28;20393;-64
2023/01/15 09:05:16;;;;;;;3.47;2.13;;;7.20;99.90;;;;;;5014011;28;20058;-63
2023/01/15 09:07:41;;;;;;;0.93;0.60;;;7.10;99.90;;;;;;5015855;28;20113;-64
2023/01/15 09:10:08;;;;;;;4.32;2.72;;;7.00;99.90;;;;;;5010289;28;20121;-70
2023/01/15 09:12:34;;;;;;;2.78;0.50;;;6.90;99.90;;;;;;5007613;28;20588;-69
2023/01/15 09:15:00;;;;;;;0.63;0.60;;;6.90;99.90;;;;;;5014909;28;20041;-69
2023/01/15 09:17:27;;;;;;;6.82;3.15;;;6.90;99.90;;;;;;5015390;28;20033;-69
2023/01/15 09:19:52;;;;;;;5.20;1.98;;;6.90;99.90;;;;;;5016826;28;20120;-71
2023/01/15 09:22:18;;;;;;;32.72;14.65;;;7.10;99.90;;;;;;5037702;28;20037;-67
2023/01/15 09:24:45;;;;;;;2.00;1.10;;;7.20;99.90;;;;;;5014255;28;20025;-65
2023/01/15 09:27:11;;;;;;;4.63;2.10;;;7.20;99.90;;;;;;5018712;28;20075;-64
2023/01/15 09:29:37;;;;;;;1.23;0.68;;;7.30;99.90;;;;;;5015370;28;20830;-64
2023/01/15 09:32:03;;;;;;;2.45;0.90;;;7.40;99.70;;;;;;5015826;28;20038;-66
2023/01/15 09:34:29;;;;;;;2.75;0.45;;;7.50;99.80;;;;;;5009146;28;20084;-64
2023/01/15 09:36:54;;;;;;;0.88;0.22;;;7.50;99.60;;;;;;5006932;28;20037;-68
2023/01/15 09:39:20;;;;;;;2.05;0.88;;;7.50;99.00;;;;;;5012177;28;20457;-66
2023/01/15 09:42:15;;;;;;;3.85;1.88;;;7.50;99.50;;;;;;5010270;28;20036;-66
2023/01/15 09:44:52;;;;;;;25.45;2.90;;;7.40;99.10;;;;;;5010006;28;20071;-67
2023/01/15 09:47:39;;;;;;;0.30;0.30;;;7.30;99.70;;;;;;5005558;28;20026;-67
2023/01/15 09:50:38;;;;;;;1.75;0.30;;;7.20;99.50;;;;;;5017864;28;20800;-68
2023/01/15 09:53:20;;;;;;;1.98;0.47;;;7.20;98.90;;;;;;5018780;28;20107;-68
2023/01/15 09:55:49;;;;;;;0.50;0.40;;;7.20;98.80;;;;;;5013268;28;20071;-68
2023/01/15 09:58:18;;;;;;;0.50;0.50;;;7.10;99.00;;;;;;5012887;28;20041;-67
2023/01/15 10:00:50;;;;;;;0.40;0.30;;;7.20;99.00;;;;;;5021809;28;20045;-68
2023/01/15 10:03:57;;;;;;;0.60;0.30;;;7.30;98.60;;;;;;5017046;28;20068;-67
2023/01/15 10:06:25;;;;;;;;;;;7.40;98.10;;;;;;5017701;28;20025;-67
2023/01/15 10:09:01;;;;;;;4.20;0.50;;;7.50;98.00;;;;;;5007087;28;20055;-66
2023/01/15 10:14:46;;;;;;;2.42;0.52;;;7.60;96.90;;;;;;5009882;28;20117;-66
2023/01/15 10:17:21;;;;;;;1.05;0.40;;;7.50;97.50;;;;;;5011379;28;20029;-66
2023/01/15 10:19:47;;;;;;;1.20;0.30;;;7.40;97.60;;;;;;5006899;28;20034;-66
2023/01/15 10:22:43;;;;;;;1.45;0.40;;;7.40;96.70;;;;;;5008644;28;20037;-66
2023/01/15 10:25:16;;;;;;;0.47;0.40;;;7.40;97.40;;;;;;5013142;28;20036;-66
2023/01/15 10:27:47;;;;;;;1.88;0.98;;;7.50;97.00;;;;;;5011434;28;20029;-66
2023/01/15 10:30:28;;;;;;;1.73;0.60;;;7.50;97.00;;;;;;5013031;28;20069;-66
2023/01/15 10:33:00;;;;;;;0.30;0.13;;;7.40;97.10;;;;;;5012690;28;20030;-70
2023/01/15 10:35:46;;;;;;;1.58;0.35;;;7.50;96.90;;;;;;5016922;28;20048;-68
2023/01/15 10:38:33;;;;;;;0.22;0.20;;;7.50;96.90;;;;;;5001037;28;20038;-66
2023/01/15 10:41:08;;;;;;;0.77;0.38;;;7.50;97.30;;;;;;5008230;28;20104;-67
2023/01/15 10:43:57;;;;;;;1.90;0.50;;;7.60;96.90;;;;;;5010073;28;20037;-66
2023/01/15 10:46:32;;;;;;;0.68;0.50;;;7.70;97.10;;;;;;5008220;28;20058;-67
2023/01/15 10:49:17;;;;;;;1.33;0.68;;;7.80;96.40;;;;;;5001855;28;20174;-66
2023/01/15 10:52:25;;;;;;;1.13;0.68;;;7.60;96.10;;;;;;5005323;28;20068;-66
2023/01/15 10:55:02;;;;;;;0.80;0.30;;;7.70;96.30;;;;;;5012943;28;20052;-66
2023/01/15 10:57:42;;;;;;;0.52;0.20;;;7.70;96.00;;;;;;5013624;28;20572;-66
2023/01/15 11:00:09;;;;;;;1.15;0.30;;;7.70;96.10;;;;;;5007410;28;20077;-66
2023/01/15 11:02:49;;;;;;;1.27;0.73;;;7.70;95.50;;;;;;5003420;28;20694;-66
2023/01/15 11:05:18;;;;;;;0.98;0.40;;;7.70;95.30;;;;;;5011971;28;20045;-67
2023/01/15 11:07:49;;;;;;;11.90;5.35;;;7.70;96.10;;;;;;5011997;28;20884;-67
2023/01/15 11:10:19;;;;;;;1.70;1.05;;;7.80;96.20;;;;;;5008959;28;20033;-67
2023/01/15 11:21:22;;;;;;;1.55;0.70;;;7.80;95.20;;;;;;5020606;28;20120;-67
2023/01/15 11:23:49;;;;;;;2.75;0.50;;;7.80;95.00;;;;;;5018904;28;20826;-66
2023/01/15 11:26:23;;;;;;;2.55;1.27;;;7.80;95.30;;;;;;5009371;28;20069;-67
2023/01/15 11:28:49;;;;;;;0.77;0.40;;;7.70;95.20;;;;;;5005605;28;20084;-69
2023/01/15 11:31:15;;;;;;;1.38;0.40;;;7.60;95.20;;;;;;5014240;28;20037;-66
2023/01/15 11:34:02;;;;;;;0.82;0.40;;;7.50;94.60;;;;;;5014573;28;20496;-65
2023/01/15 11:36:28;;;;;;;;;;;7.40;96.00;;;;;;5024018;28;20030;-68
2023/01/15 11:38:54;;;;;;;1.38;0.43;;;7.50;96.10;;;;;;5018357;28;19920;-65
2023/01/15 11:41:20;;;;;;;3.85;0.80;;;7.50;95.40;;;;;;5017349;28;20096;-66
2023/01/15 11:52:21;;;;;;;0.63;0.60;;;7.50;95.90;;;;;;5007150;28;20040;-65
2023/01/15 11:54:51;;;;;;;1.52;0.30;;;7.60;95.00;;;;;;5012693;28;20880;-65
2023/01/15 11:57:44;;;;;;;13.15;4.80;;;7.60;95.10;;;;;;5013464;28;20048;-65
2023/01/15 12:00:29;;;;;;;3.53;1.85;;;7.50;95.10;;;;;;5015207;28;20077;-67
2023/01/15 12:03:02;;;;;;;1.00;0.68;;;7.50;95.40;;;;;;5007170;28;20708;-64
2023/01/15 12:05:31;;;;;;;4.45;2.85;;;7.50;94.90;;;;;;5005084;28;20034;-63
2023/01/15 12:08:02;;;;;;;1.23;0.75;;;7.60;95.10;;;;;;4987823;28;20193;-65
2023/01/15 12:11:04;;;;;;;3.83;1.75;;;7.60;95.20;;;;;;5011396;28;20035;-65
2023/01/15 12:13:35;;;;;;;2.70;0.88;;;7.50;95.00;;;;;;5004399;28;20065;-67
2023/01/15 12:16:22;;;;;;;1.95;0.45;;;7.50;94.90;;;;;;5009018;28;20087;-64
2023/01/15 12:18:55;;;;;;;5.20;1.50;;;7.60;95.30;;;;;;5015118;28;20021;-65
2023/01/15 12:21:42;;;;;;;2.38;0.52;;;7.60;95.30;;;;;;5020422;28;20072;-65
2023/01/15 12:24:36;;;;;;;7.07;2.53;;;7.60;94.30;;;;;;5018880;28;20073;-65
2023/01/15 12:27:10;;;;;;;0.40;0.30;;;7.80;95.10;;;;;;5016837;28;20109;-65
2023/01/15 12:29:51;;;;;;;2.10;0.63;;;7.80;94.60;;;;;;5006052;28;20501;-65
2023/01/15 12:32:23;;;;;;;0.73;0.40;;;7.90;95.00;;;;;;5012397;28;20030;-66
2023/01/15 12:34:53;;;;;;;1.45;0.75;;;8.00;94.20;;;;;;5021813;28;20404;-66
2023/01/15 12:37:27;;;;;;;2.10;0.70;;;7.90;94.10;;;;;;5007759;28;20033;-65
2023/01/15 12:39:58;;;;;;;0.95;0.50;;;7.70;94.50;;;;;;5020831;28;20033;-65
2023/01/15 12:45:30;;;;;;;4.25;1.05;;;7.70;95.20;;;;;;5020149;28;20037;-65
2023/01/15 12:48:17;;;;;;;1.42;0.70;;;7.70;95.00;;;;;;5018580;28;20061;-65
2023/01/15 12:50:46;;;;;;;5.55;1.55;;;7.80;95.10;;;;;;5008077;28;20485;-63
2023/01/15 12:53:27;;;;;;;3.22;0.50;;;7.70;94.50;;;;;;5003443;28;20152;-64
2023/01/15 12:56:16;;;;;;;4.35;0.90;;;7.60;94.60;;;;;;5006471;28;20089;-65
2023/01/15 12:59:07;;;;;;;12.23;0.98;;;7.60;94.70;;;;;;5017819;28;20061;-65
2023/01/15 13:01:44;;;;;;;2.55;0.50;;;7.70;94.10;;;;;;5012711;28;20644;-64
2023/01/15 13:04:16;;;;;;;3.17;1.25;;;7.60;94.30;;;;;;5025168;28;20518;-66
2023/01/15 13:06:51;;;;;;;3.00;0.52;;;7.60;95.10;;;;;;5018200;28;20480;-63
2023/01/15 13:09:23;;;;;;;4.70;1.42;;;7.70;94.40;;;;;;5012618;28;20025;-65
2023/01/15 13:11:48;;;;;;;1.70;0.35;;;7.70;94.50;;;;;;5013506;28;20041;-63
2023/01/15 13:14:16;;;;;;;2.67;0.77;;;7.70;93.70;;;;;;5014746;28;20596;-63
2023/01/15 13:16:57;;;;;;;3.72;1.15;;;7.60;93.80;;;;;;5010658;28;20060;-63
2023/01/15 13:19:43;;;;;;;2.00;0.68;;;7.80;94.10;;;;;;5008094;28;20501;-63
2023/01/15 13:22:21;;;;;;;4.20;0.80;;;7.70;93.70;;;;;;5002621;28;20038;-63
2023/01/15 13:25:04;;;;;;;2.22;0.80;;;7.70;93.40;;;;;;5010928;28;20129;-63
2023/01/15 13:27:39;;;;;;;3.33;0.30;;;7.80;93.60;;;;;;5016124;28;20025;-63
2023/01/15 13:30:32;;;;;;;2.13;0.68;;;7.70;92.60;;;;;;5013553;28;20032;-63
2023/01/15 13:33:17;;;;;;;3.47;1.00;;;7.60;93.60;;;;;;5006264;28;20104;-65
2023/01/15 13:35:48;;;;;;;0.43;0.35;;;7.60;93.60;;;;;;5019255;28;20029;-63
2023/01/15 13:38:27;;;;;;;2.70;0.50;;;7.50;93.30;;;;;;5015229;28;20213;-65
2023/01/15 13:40:55;;;;;;;2.10;0.32;;;7.40;93.20;;;;;;5013041;28;20026;-65
2023/01/15 13:43:35;;;;;;;4.80;0.63;;;7.50;93.70;;;;;;5004050;28;20062;-63
2023/01/15 13:46:18;;;;;;;1.77;1.00;;;7.40;93.10;;;;;;5007385;28;20465;-67
2023/01/15 13:48:53;;;;;;;2.42;0.82;;;7.50;93.50;;;;;;5011970;28;20034;-67
2023/01/15 13:51:26;;;;;;;4.53;0.57;;;7.60;93.30;;;;;;5018599;28;20029;-64
2023/01/15 13:53:54;;;;;;;1.10;0.40;;;7.60;93.30;;;;;;5012756;28;20037;-63
2023/01/15 13:56:28;;;;;;;1.60;0.60;;;7.70;92.60;;;;;;5002203;28;20029;-64
2023/01/15 13:59:00;;;;;;;3.28;0.60;;;7.60;92.90;;;;;;5004528;28;20040;-64
2023/01/15 14:01:29;;;;;;;1.45;0.52;;;7.60;93.40;;;;;;5017021;28;20041;-63
2023/01/15 14:04:11;;;;;;;0.98;0.50;;;7.50;93.30;;;;;;5008346;28;20088;-64
2023/01/15 14:06:45;;;;;;;7.72;0.47;;;7.40;93.60;;;;;;5016904;28;20155;-64
2023/01/15 14:09:33;;;;;;;1.77;0.30;;;7.40;93.20;;;;;;5010651;28;20049;-68
2023/01/15 14:12:26;;;;;;;1.42;0.63;;;7.40;93.60;;;;;;5017929;28;20049;-68
2023/01/15 14:15:07;;;;;;;3.03;0.30;;;7.50;93.50;;;;;;5011195;28;20042;-65